sensor_id;sensor_type;location;lat;lon;timestamp;P1;durP1;ratioP1;P2;durP2;ratioP2
72408;SDS011;60402;48.082;11.628;2022-10-16T00:01:17;1.38;;;0.90;;
72408;SDS011;60402;48.082;11.628;2022-10-16T00:03:44;2.40;;;1.02;;
72408;SDS011;60402;48.082;11.628;2022-10-16T00:06:11;5.25;;;0.98;;
72408;SDS011;60402;48.082;11.628;2022-10-16T00:08:37;2.75;;;1.00;;
72408;SDS011;60402;48.082;11.628;2022-10-16T00:11:04;2.65;;;1.02;;
72408;SDS011;60402;48.082;11.628;2022-10-16T00:13:34;3.13;;;1.00;;
72408;SDS011;60402;48.082;11.628;2022-10-16T00:16:01;2.67;;;0.82;;
72408;SDS011;60402;48.082;11.628;2022-10-16T00:18:28;2.30;;;0.88;;
72408;SDS011;60402;48.082;11.628;2022-10-16T00:20:54;3.25;;;0.90;;
72408;SDS011;60402;48.082;11.628;2022-10-16T00:23:20;2.70;;;0.90;;
72408;SDS011;60402;48.082;11.628;2022-10-16T00:25:56;1.77;;;0.90;;
72408;SDS011;60402;48.082;11.628;2022-10-16T00:28:23;2.25;;;0.80;;
72408;SDS011;60402;48.082;11.628;2022-10-16T00:30:49;2.80;;;0.98;;
72408;SDS011;60402;48.082;11.628;2022-10-16T00:33:14;2.45;;;0.95;;
72408;SDS011;60402;48.082;11.628;2022-10-16T00:35:40;2.30;;;0.88;;
72408;SDS011;60402;48.082;11.628;2022-10-16T00:38:05;2.63;;;1.10;;
72408;SDS011;60402;48.082;11.628;2022-10-16T00:40:30;2.83;;;1.00;;
72408;SDS011;60402;48.082;11.628;2022-10-16T00:42:56;2.55;;;1.00;;
72408;SDS011;60402;48.082;11.628;2022-10-16T00:45:22;2.72;;;1.00;;
72408;SDS011;60402;48.082;11.628;2022-10-16T00:47:47;1.98;;;0.82;;
72408;SDS011;60402;48.082;11.628;2022-10-16T00:50:30;2.53;;;1.23;;
72408;SDS011;60402;48.082;11.628;2022-10-16T00:52:58;2.58;;;1.10;;
72408;SDS011;60402;48.082;11.628;2022-10-16T00:55:25;5.82;;;1.20;;
72408;SDS011;60402;48.082;11.628;2022-10-16T00:57:53;5.43;;;1.27;;
72408;SDS011;60402;48.082;11.628;2022-10-16T01:00:21;3.65;;;1.00;;
72408;SDS011;60402;48.082;11.628;2022-10-16T01:02:55;2.35;;;1.00;;
72408;SDS011;60402;48.082;11.628;2022-10-16T01:05:22;3.13;;;1.00;;
72408;SDS011;60402;48.082;11.628;2022-10-16T01:08:08;4.63;;;0.90;;
72408;SDS011;60402;48.082;11.628;2022-10-16T01:10:55;1.92;;;1.00;;
72408;SDS011;60402;48.082;11.628;2022-10-16T01:13:34;4.25;;;1.00;;
72408;SDS011;60402;48.082;11.628;2022-10-16T01:16:13;1.70;;;1.00;;
72408;SDS011;60402;48.082;11.628;2022-10-16T01:18:44;3.22;;;0.88;;
72408;SDS011;60402;48.082;11.628;2022-10-16T01:21:26;4.93;;;1.10;;
72408;SDS011;60402;48.082;11.628;2022-10-16T01:29:26;1.50;;;0.82;;
72408;SDS011;60402;48.082;11.628;2022-10-16T01:32:05;2.63;;;0.90;;
72408;SDS011;60402;48.082;11.628;2022-10-16T01:34:48;5.05;;;0.95;;
72408;SDS011;60402;48.082;11.628;2022-10-16T01:37:32;1.33;;;0.80;;
72408;SDS011;60402;48.082;11.628;2022-10-16T01:40:03;2.80;;;0.98;;
72408;SDS011;60402;48.082;11.628;2022-10-16T01:42:34;2.10;;;1.00;;
72408;SDS011;60402;48.082;11.628;2022-10-16T01:45:05;1.77;;;0.70;;
72408;SDS011;60402;48.082;11.628;2022-10-16T01:47:32;1.25;;;0.70;;
72408;SDS011;60402;48.082;11.628;2022-10-16T01:50:01;2.22;;;1.00;;
72408;SDS011;60402;48.082;11.628;2022-10-16T01:52:29;2.00;;;0.85;;
72408;SDS011;60402;48.082;11.628;2022-10-16T01:54:59;3.25;;;0.90;;
72408;SDS011;60402;48.082;11.628;2022-10-16T01:57:27;5.70;;;0.90;;
72408;SDS011;60402;48.082;11.628;2022-10-16T01:59:56;2.13;;;0.90;;
72408;SDS011;60402;48.082;11.628;2022-10-16T02:02:26;1.67;;;0.98;;
72408;SDS011;60402;48.082;11.628;2022-10-16T02:04:55;4.40;;;0.93;;
72408;SDS011;60402;48.082;11.628;2022-10-16T02:07:27;2.47;;;0.90;;
72408;SDS011;60402;48.082;11.628;2022-10-16T02:09:52;3.72;;;0.90;;
72408;SDS011;60402;48.082;11.628;2022-10-16T02:12:23;2.95;;;0.85;;
72408;SDS011;60402;48.082;11.628;2022-10-16T02:14:52;4.22;;;0.80;;
72408;SDS011;60402;48.082;11.628;2022-10-16T02:17:18;1.63;;;0.80;;
72408;SDS011;60402;48.082;11.628;2022-10-16T02:19:44;1.98;;;0.80;;
72408;SDS011;60402;48.082;11.628;2022-10-16T02:22:15;2.67;;;0.90;;
72408;SDS011;60402;48.082;11.628;2022-10-16T02:24:52;1.85;;;0.80;;
72408;SDS011;60402;48.082;11.628;2022-10-16T02:27:31;1.58;;;0.80;;
72408;SDS011;60402;48.082;11.628;2022-10-16T02:30:07;2.13;;;0.90;;
72408;SDS011;60402;48.082;11.628;2022-10-16T02:32:39;2.55;;;0.85;;
72408;SDS011;60402;48.082;11.628;2022-10-16T02:35:08;2.05;;;0.70;;
72408;SDS011;60402;48.082;11.628;2022-10-16T02:37:34;2.67;;;0.90;;
72408;SDS011;60402;48.082;11.628;2022-10-16T02:40:02;2.58;;;0.82;;
72408;SDS011;60402;48.082;11.628;2022-10-16T02:42:33;1.50;;;0.88;;
72408;SDS011;60402;48.082;11.628;2022-10-16T02:45:02;3.10;;;0.90;;
72408;SDS011;60402;48.082;11.628;2022-10-16T02:47:28;3.00;;;1.08;;
72408;SDS011;60402;48.082;11.628;2022-10-16T02:49:54;2.03;;;0.90;;
72408;SDS011;60402;48.082;11.628;2022-10-16T02:52:19;1.83;;;0.80;;
72408;SDS011;60402;48.082;11.628;2022-10-16T02:54:44;2.35;;;1.05;;
72408;SDS011;60402;48.082;11.628;2022-10-16T02:57:10;2.27;;;0.93;;
72408;SDS011;60402;48.082;11.628;2022-10-16T02:59:35;1.40;;;0.80;;
72408;SDS011;60402;48.082;11.628;2022-10-16T03:02:00;1.35;;;0.80;;
72408;SDS011;60402;48.082;11.628;2022-10-16T03:04:26;1.98;;;0.80;;
72408;SDS011;60402;48.082;11.628;2022-10-16T03:06:51;3.73;;;1.00;;
72408;SDS011;60402;48.082;11.628;2022-10-16T03:09:16;2.20;;;0.90;;
72408;SDS011;60402;48.082;11.628;2022-10-16T03:11:42;1.90;;;0.80;;
72408;SDS011;60402;48.082;11.628;2022-10-16T03:14:07;2.25;;;0.90;;
72408;SDS011;60402;48.082;11.628;2022-10-16T03:16:32;2.33;;;1.00;;
72408;SDS011;60402;48.082;11.628;2022-10-16T03:18:57;1.70;;;0.70;;
72408;SDS011;60402;48.082;11.628;2022-10-16T03:21:23;1.70;;;0.90;;
72408;SDS011;60402;48.082;11.628;2022-10-16T03:23:48;2.63;;;0.90;;
72408;SDS011;60402;48.082;11.628;2022-10-16T03:26:13;1.97;;;0.90;;
72408;SDS011;60402;48.082;11.628;2022-10-16T03:28:39;2.47;;;0.93;;
72408;SDS011;60402;48.082;11.628;2022-10-16T03:31:04;2.53;;;1.00;;
72408;SDS011;60402;48.082;11.628;2022-10-16T03:33:29;2.20;;;0.80;;
72408;SDS011;60402;48.082;11.628;2022-10-16T03:35:55;2.00;;;0.93;;
72408;SDS011;60402;48.082;11.628;2022-10-16T03:38:20;1.88;;;0.88;;
72408;SDS011;60402;48.082;11.628;2022-10-16T03:40:46;6.30;;;1.00;;
72408;SDS011;60402;48.082;11.628;2022-10-16T03:43:12;1.92;;;1.10;;
72408;SDS011;60402;48.082;11.628;2022-10-16T03:45:37;3.63;;;1.20;;
72408;SDS011;60402;48.082;11.628;2022-10-16T03:48:02;2.33;;;0.80;;
72408;SDS011;60402;48.082;11.628;2022-10-16T03:50:28;5.03;;;1.02;;
72408;SDS011;60402;48.082;11.628;2022-10-16T03:52:53;3.67;;;1.05;;
72408;SDS011;60402;48.082;11.628;2022-10-16T03:55:19;1.85;;;1.00;;
72408;SDS011;60402;48.082;11.628;2022-10-16T03:57:44;2.22;;;1.00;;
72408;SDS011;60402;48.082;11.628;2022-10-16T04:00:10;5.78;;;1.30;;
72408;SDS011;60402;48.082;11.628;2022-10-16T04:02:36;2.85;;;1.20;;
72408;SDS011;60402;48.082;11.628;2022-10-16T04:05:01;3.07;;;1.20;;
72408;SDS011;60402;48.082;11.628;2022-10-16T04:07:26;2.40;;;1.02;;
72408;SDS011;60402;48.082;11.628;2022-10-16T04:09:51;2.80;;;1.05;;
72408;SDS011;60402;48.082;11.628;2022-10-16T04:12:17;4.60;;;1.10;;
72408;SDS011;60402;48.082;11.628;2022-10-16T04:14:42;2.63;;;1.15;;
72408;SDS011;60402;48.082;11.628;2022-10-16T04:17:08;2.13;;;0.90;;
72408;SDS011;60402;48.082;11.628;2022-10-16T04:19:33;3.60;;;0.90;;
72408;SDS011;60402;48.082;11.628;2022-10-16T04:21:58;2.13;;;1.00;;
72408;SDS011;60402;48.082;11.628;2022-10-16T04:24:23;1.85;;;0.90;;
72408;SDS011;60402;48.082;11.628;2022-10-16T04:26:49;3.28;;;0.80;;
72408;SDS011;60402;48.082;11.628;2022-10-16T04:29:14;3.20;;;1.00;;
72408;SDS011;60402;48.082;11.628;2022-10-16T04:31:39;3.92;;;0.80;;
72408;SDS011;60402;48.082;11.628;2022-10-16T04:34:05;1.80;;;0.85;;
72408;SDS011;60402;48.082;11.628;2022-10-16T04:36:30;3.45;;;1.08;;
72408;SDS011;60402;48.082;11.628;2022-10-16T04:38:55;3.53;;;0.98;;
72408;SDS011;60402;48.082;11.628;2022-10-16T04:41:21;2.55;;;0.98;;
72408;SDS011;60402;48.082;11.628;2022-10-16T04:43:46;4.65;;;1.00;;
72408;SDS011;60402;48.082;11.628;2022-10-16T04:46:11;1.75;;;0.90;;
72408;SDS011;60402;48.082;11.628;2022-10-16T04:48:37;2.55;;;0.95;;
72408;SDS011;60402;48.082;11.628;2022-10-16T04:51:02;2.30;;;0.95;;
72408;SDS011;60402;48.082;11.628;2022-10-16T04:53:28;2.67;;;0.80;;
72408;SDS011;60402;48.082;11.628;2022-10-16T04:55:53;2.58;;;1.00;;
72408;SDS011;60402;48.082;11.628;2022-10-16T04:58:18;3.35;;;1.00;;
72408;SDS011;60402;48.082;11.628;2022-10-16T05:00:44;3.38;;;0.90;;
72408;SDS011;60402;48.082;11.628;2022-10-16T05:03:11;2.90;;;0.70;;
72408;SDS011;60402;48.082;11.628;2022-10-16T05:05:36;4.28;;;1.00;;
72408;SDS011;60402;48.082;11.628;2022-10-16T05:08:08;5.18;;;1.10;;
72408;SDS011;60402;48.082;11.628;2022-10-16T05:10:33;2.40;;;0.90;;
72408;SDS011;60402;48.082;11.628;2022-10-16T05:12:59;2.45;;;0.90;;
72408;SDS011;60402;48.082;11.628;2022-10-16T05:15:24;3.08;;;1.05;;
72408;SDS011;60402;48.082;11.628;2022-10-16T05:17:51;2.53;;;1.10;;
72408;SDS011;60402;48.082;11.628;2022-10-16T05:20:18;3.67;;;0.98;;
72408;SDS011;60402;48.082;11.628;2022-10-16T05:22:43;1.70;;;0.73;;
72408;SDS011;60402;48.082;11.628;2022-10-16T05:25:08;2.47;;;1.03;;
72408;SDS011;60402;48.082;11.628;2022-10-16T05:27:33;2.47;;;1.38;;
72408;SDS011;60402;48.082;11.628;2022-10-16T05:29:59;2.58;;;1.10;;
72408;SDS011;60402;48.082;11.628;2022-10-16T05:32:24;1.67;;;0.85;;
72408;SDS011;60402;48.082;11.628;2022-10-16T05:34:50;4.17;;;1.20;;
72408;SDS011;60402;48.082;11.628;2022-10-16T05:37:15;3.30;;;1.20;;
72408;SDS011;60402;48.082;11.628;2022-10-16T05:39:41;4.13;;;1.40;;
72408;SDS011;60402;48.082;11.628;2022-10-16T05:42:06;2.60;;;0.90;;
72408;SDS011;60402;48.082;11.628;2022-10-16T05:44:31;3.17;;;1.08;;
72408;SDS011;60402;48.082;11.628;2022-10-16T05:46:57;3.03;;;1.10;;
72408;SDS011;60402;48.082;11.628;2022-10-16T05:49:22;2.17;;;0.90;;
72408;SDS011;60402;48.082;11.628;2022-10-16T05:51:48;2.40;;;0.95;;
72408;SDS011;60402;48.082;11.628;2022-10-16T05:54:13;1.98;;;0.95;;
72408;SDS011;60402;48.082;11.628;2022-10-16T05:56:38;2.42;;;0.90;;
72408;SDS011;60402;48.082;11.628;2022-10-16T05:59:04;2.92;;;1.02;;
72408;SDS011;60402;48.082;11.628;2022-10-16T06:01:30;3.97;;;1.10;;
72408;SDS011;60402;48.082;11.628;2022-10-16T06:03:56;3.22;;;1.00;;
72408;SDS011;60402;48.082;11.628;2022-10-16T06:06:22;1.85;;;0.90;;
72408;SDS011;60402;48.082;11.628;2022-10-16T06:08:50;2.08;;;1.08;;
72408;SDS011;60402;48.082;11.628;2022-10-16T06:11:17;3.42;;;1.10;;
72408;SDS011;60402;48.082;11.628;2022-10-16T06:13:44;3.72;;;1.00;;
72408;SDS011;60402;48.082;11.628;2022-10-16T06:16:11;3.15;;;1.10;;
72408;SDS011;60402;48.082;11.628;2022-10-16T06:18:39;3.25;;;1.00;;
72408;SDS011;60402;48.082;11.628;2022-10-16T06:21:08;2.42;;;1.10;;
72408;SDS011;60402;48.082;11.628;2022-10-16T06:23:35;8.63;;;1.10;;
72408;SDS011;60402;48.082;11.628;2022-10-16T06:26:04;3.75;;;0.95;;
72408;SDS011;60402;48.082;11.628;2022-10-16T06:28:33;3.95;;;1.30;;
72408;SDS011;60402;48.082;11.628;2022-10-16T06:30:59;1.98;;;1.00;;
72408;SDS011;60402;48.082;11.628;2022-10-16T06:33:25;2.72;;;1.00;;
72408;SDS011;60402;48.082;11.628;2022-10-16T06:35:50;3.78;;;1.20;;
72408;SDS011;60402;48.082;11.628;2022-10-16T06:38:16;3.10;;;1.20;;
72408;SDS011;60402;48.082;11.628;2022-10-16T06:40:41;3.17;;;1.23;;
72408;SDS011;60402;48.082;11.628;2022-10-16T06:43:06;4.57;;;1.10;;
72408;SDS011;60402;48.082;11.628;2022-10-16T06:45:31;2.93;;;1.17;;
72408;SDS011;60402;48.082;11.628;2022-10-16T06:47:57;2.88;;;1.27;;
72408;SDS011;60402;48.082;11.628;2022-10-16T06:50:22;4.60;;;1.33;;
72408;SDS011;60402;48.082;11.628;2022-10-16T06:52:47;2.97;;;1.00;;
72408;SDS011;60402;48.082;11.628;2022-10-16T06:55:13;3.33;;;1.13;;
72408;SDS011;60402;48.082;11.628;2022-10-16T06:57:38;1.63;;;0.90;;
72408;SDS011;60402;48.082;11.628;2022-10-16T07:00:03;3.50;;;1.35;;
72408;SDS011;60402;48.082;11.628;2022-10-16T07:02:30;4.97;;;1.40;;
72408;SDS011;60402;48.082;11.628;2022-10-16T07:04:55;4.40;;;1.08;;
72408;SDS011;60402;48.082;11.628;2022-10-16T07:07:21;2.95;;;1.00;;
72408;SDS011;60402;48.082;11.628;2022-10-16T07:09:49;2.80;;;0.90;;
72408;SDS011;60402;48.082;11.628;2022-10-16T07:12:15;3.42;;;1.30;;
72408;SDS011;60402;48.082;11.628;2022-10-16T07:14:40;3.40;;;1.10;;
72408;SDS011;60402;48.082;11.628;2022-10-16T07:17:05;2.10;;;1.07;;
72408;SDS011;60402;48.082;11.628;2022-10-16T07:19:31;1.52;;;0.80;;
72408;SDS011;60402;48.082;11.628;2022-10-16T07:21:56;2.28;;;1.02;;
72408;SDS011;60402;48.082;11.628;2022-10-16T07:24:22;2.25;;;0.90;;
72408;SDS011;60402;48.082;11.628;2022-10-16T07:26:47;2.88;;;0.98;;
72408;SDS011;60402;48.082;11.628;2022-10-16T07:29:14;3.13;;;1.17;;
72408;SDS011;60402;48.082;11.628;2022-10-16T07:34:06;2.25;;;1.02;;
72408;SDS011;60402;48.082;11.628;2022-10-16T07:36:32;2.55;;;0.90;;
72408;SDS011;60402;48.082;11.628;2022-10-16T07:38:57;1.75;;;0.88;;
72408;SDS011;60402;48.082;11.628;2022-10-16T07:41:23;3.53;;;1.20;;
72408;SDS011;60402;48.082;11.628;2022-10-16T07:43:49;3.25;;;1.10;;
72408;SDS011;60402;48.082;11.628;2022-10-16T07:46:16;3.72;;;0.95;;
72408;SDS011;60402;48.082;11.628;2022-10-16T07:48:42;3.45;;;1.30;;
72408;SDS011;60402;48.082;11.628;2022-10-16T07:51:10;2.80;;;1.25;;
72408;SDS011;60402;48.082;11.628;2022-10-16T07:53:36;4.00;;;1.40;;
72408;SDS011;60402;48.082;11.628;2022-10-16T07:56:03;3.38;;;1.10;;
72408;SDS011;60402;48.082;11.628;2022-10-16T07:58:30;2.53;;;1.08;;
72408;SDS011;60402;48.082;11.628;2022-10-16T08:00:57;4.82;;;1.10;;
72408;SDS011;60402;48.082;11.628;2022-10-16T08:03:23;2.47;;;1.10;;
72408;SDS011;60402;48.082;11.628;2022-10-16T08:05:49;1.92;;;1.10;;
72408;SDS011;60402;48.082;11.628;2022-10-16T08:08:15;1.88;;;1.00;;
72408;SDS011;60402;48.082;11.628;2022-10-16T08:10:42;1.92;;;1.10;;
72408;SDS011;60402;48.082;11.628;2022-10-16T08:13:08;2.60;;;0.93;;
72408;SDS011;60402;48.082;11.628;2022-10-16T08:15:33;1.23;;;0.90;;
72408;SDS011;60402;48.082;11.628;2022-10-16T08:17:59;1.95;;;1.15;;
72408;SDS011;60402;48.082;11.628;2022-10-16T08:20:26;2.47;;;1.00;;
72408;SDS011;60402;48.082;11.628;2022-10-16T08:22:52;3.13;;;1.00;;
72408;SDS011;60402;48.082;11.628;2022-10-16T08:25:19;1.70;;;0.98;;
72408;SDS011;60402;48.082;11.628;2022-10-16T08:27:45;3.58;;;0.80;;
72408;SDS011;60402;48.082;11.628;2022-10-16T08:30:11;2.92;;;0.95;;
72408;SDS011;60402;48.082;11.628;2022-10-16T08:32:36;1.20;;;0.82;;
72408;SDS011;60402;48.082;11.628;2022-10-16T08:35:01;2.33;;;0.85;;
72408;SDS011;60402;48.082;11.628;2022-10-16T08:37:30;2.85;;;0.90;;
72408;SDS011;60402;48.082;11.628;2022-10-16T08:39:56;2.88;;;1.10;;
72408;SDS011;60402;48.082;11.628;2022-10-16T08:48:00;2.33;;;0.90;;
72408;SDS011;60402;48.082;11.628;2022-10-16T08:50:30;1.75;;;0.80;;
72408;SDS011;60402;48.082;11.628;2022-10-16T08:52:58;2.80;;;1.08;;
72408;SDS011;60402;48.082;11.628;2022-10-16T08:55:34;1.98;;;1.00;;
72408;SDS011;60402;48.082;11.628;2022-10-16T08:58:09;2.55;;;1.10;;
72408;SDS011;60402;48.082;11.628;2022-10-16T09:00:38;2.20;;;0.82;;
72408;SDS011;60402;48.082;11.628;2022-10-16T09:03:10;1.00;;;0.70;;
72408;SDS011;60402;48.082;11.628;2022-10-16T09:05:52;0.82;;;0.70;;
72408;SDS011;60402;48.082;11.628;2022-10-16T09:08:55;2.03;;;0.88;;
72408;SDS011;60402;48.082;11.628;2022-10-16T09:11:53;1.67;;;0.80;;
72408;SDS011;60402;48.082;11.628;2022-10-16T09:17:20;1.67;;;1.10;;
72408;SDS011;60402;48.082;11.628;2022-10-16T09:23:15;1.33;;;0.77;;
72408;SDS011;60402;48.082;11.628;2022-10-16T09:25:42;2.00;;;0.93;;
72408;SDS011;60402;48.082;11.628;2022-10-16T09:28:13;2.03;;;0.82;;
72408;SDS011;60402;48.082;11.628;2022-10-16T09:30:38;3.22;;;1.00;;
72408;SDS011;60402;48.082;11.628;2022-10-16T09:33:04;1.48;;;0.90;;
72408;SDS011;60402;48.082;11.628;2022-10-16T09:35:32;1.88;;;0.88;;
72408;SDS011;60402;48.082;11.628;2022-10-16T09:38:02;1.80;;;0.80;;
72408;SDS011;60402;48.082;11.628;2022-10-16T09:40:32;2.25;;;0.90;;
72408;SDS011;60402;48.082;11.628;2022-10-16T09:43:03;1.42;;;0.80;;
72408;SDS011;60402;48.082;11.628;2022-10-16T09:46:09;1.38;;;0.80;;
72408;SDS011;60402;48.082;11.628;2022-10-16T09:48:57;1.80;;;0.95;;
72408;SDS011;60402;48.082;11.628;2022-10-16T09:53:59;2.15;;;0.93;;
72408;SDS011;60402;48.082;11.628;2022-10-16T09:58:53;1.75;;;0.90;;
72408;SDS011;60402;48.082;11.628;2022-10-16T10:01:29;2.92;;;1.30;;
72408;SDS011;60402;48.082;11.628;2022-10-16T10:04:00;1.73;;;0.80;;
72408;SDS011;60402;48.082;11.628;2022-10-16T10:06:28;1.90;;;0.90;;
72408;SDS011;60402;48.082;11.628;2022-10-16T10:11:48;4.30;;;1.10;;
72408;SDS011;60402;48.082;11.628;2022-10-16T10:14:31;2.42;;;1.13;;
72408;SDS011;60402;48.082;11.628;2022-10-16T10:19:51;2.30;;;0.98;;
72408;SDS011;60402;48.082;11.628;2022-10-16T10:36:20;2.58;;;1.08;;
72408;SDS011;60402;48.082;11.628;2022-10-16T10:38:56;1.90;;;1.00;;
72408;SDS011;60402;48.082;11.628;2022-10-16T10:46:54;1.55;;;0.80;;
72408;SDS011;60402;48.082;11.628;2022-10-16T10:52:02;5.40;;;0.85;;
72408;SDS011;60402;48.082;11.628;2022-10-16T10:54:41;1.75;;;0.80;;
72408;SDS011;60402;48.082;11.628;2022-10-16T11:00:13;1.75;;;0.60;;
72408;SDS011;60402;48.082;11.628;2022-10-16T11:08:18;2.90;;;0.80;;
72408;SDS011;60402;48.082;11.628;2022-10-16T11:13:36;2.83;;;0.80;;
72408;SDS011;60402;48.082;11.628;2022-10-16T11:21:36;1.30;;;0.60;;
72408;SDS011;60402;48.082;11.628;2022-10-16T11:26:51;1.23;;;0.52;;
72408;SDS011;60402;48.082;11.628;2022-10-16T11:29:22;1.10;;;0.57;;
72408;SDS011;60402;48.082;11.628;2022-10-16T11:31:52;0.63;;;0.40;;
72408;SDS011;60402;48.082;11.628;2022-10-16T11:34:25;1.17;;;0.60;;
72408;SDS011;60402;48.082;11.628;2022-10-16T11:36:53;1.38;;;0.70;;
72408;SDS011;60402;48.082;11.628;2022-10-16T11:39:28;1.25;;;0.70;;
72408;SDS011;60402;48.082;11.628;2022-10-16T11:42:41;1.40;;;0.40;;
72408;SDS011;60402;48.082;11.628;2022-10-16T11:47:43;1.38;;;0.60;;
72408;SDS011;60402;48.082;11.628;2022-10-16T11:55:40;1.35;;;0.65;;
72408;SDS011;60402;48.082;11.628;2022-10-16T11:58:22;2.45;;;0.60;;
72408;SDS011;60402;48.082;11.628;2022-10-16T12:03:42;1.38;;;0.40;;
72408;SDS011;60402;48.082;11.628;2022-10-16T12:08:52;2.03;;;0.60;;
72408;SDS011;60402;48.082;11.628;2022-10-16T12:14:07;1.75;;;0.70;;
72408;SDS011;60402;48.082;11.628;2022-10-16T12:19:18;1.13;;;0.70;;
72408;SDS011;60402;48.082;11.628;2022-10-16T12:21:45;1.88;;;0.60;;
72408;SDS011;60402;48.082;11.628;2022-10-16T12:24:21;0.77;;;0.52;;
72408;SDS011;60402;48.082;11.628;2022-10-16T12:27:02;1.25;;;0.60;;
72408;SDS011;60402;48.082;11.628;2022-10-16T12:29:40;1.15;;;0.60;;
72408;SDS011;60402;48.082;11.628;2022-10-16T12:32:26;1.33;;;0.70;;
72408;SDS011;60402;48.082;11.628;2022-10-16T12:34:55;2.42;;;0.70;;
72408;SDS011;60402;48.082;11.628;2022-10-16T12:37:22;1.27;;;0.52;;
72408;SDS011;60402;48.082;11.628;2022-10-16T12:39:51;3.20;;;0.80;;
72408;SDS011;60402;48.082;11.628;2022-10-16T12:42:19;1.80;;;0.60;;
72408;SDS011;60402;48.082;11.628;2022-10-16T12:44:45;2.40;;;0.80;;
72408;SDS011;60402;48.082;11.628;2022-10-16T12:49:52;2.17;;;0.70;;
72408;SDS011;60402;48.082;11.628;2022-10-16T12:52:26;1.25;;;0.50;;
72408;SDS011;60402;48.082;11.628;2022-10-16T12:54:59;1.10;;;0.60;;
72408;SDS011;60402;48.082;11.628;2022-10-16T13:00:24;0.73;;;0.50;;
72408;SDS011;60402;48.082;11.628;2022-10-16T13:08:36;2.58;;;0.90;;
72408;SDS011;60402;48.082;11.628;2022-10-16T13:16:36;0.95;;;0.50;;
72408;SDS011;60402;48.082;11.628;2022-10-16T13:19:25;0.85;;;0.52;;
72408;SDS011;60402;48.082;11.628;2022-10-16T13:22:24;0.70;;;0.50;;
72408;SDS011;60402;48.082;11.628;2022-10-16T13:30:15;1.50;;;0.63;;
72408;SDS011;60402;48.082;11.628;2022-10-16T13:32:44;1.25;;;0.63;;
72408;SDS011;60402;48.082;11.628;2022-10-16T13:35:23;1.73;;;0.50;;
72408;SDS011;60402;48.082;11.628;2022-10-16T13:38:03;1.67;;;0.60;;
72408;SDS011;60402;48.082;11.628;2022-10-16T13:40:58;1.05;;;0.55;;
72408;SDS011;60402;48.082;11.628;2022-10-16T13:43:43;1.00;;;0.60;;
72408;SDS011;60402;48.082;11.628;2022-10-16T13:46:13;1.13;;;0.50;;
72408;SDS011;60402;48.082;11.628;2022-10-16T13:49:02;1.83;;;0.65;;
72408;SDS011;60402;48.082;11.628;2022-10-16T13:53:59;0.98;;;0.63;;
72408;SDS011;60402;48.082;11.628;2022-10-16T13:56:26;1.33;;;0.63;;
72408;SDS011;60402;48.082;11.628;2022-10-16T13:59:00;0.65;;;0.47;;
72408;SDS011;60402;48.082;11.628;2022-10-16T14:01:28;1.77;;;0.65;;
72408;SDS011;60402;48.082;11.628;2022-10-16T14:04:00;1.33;;;0.70;;
72408;SDS011;60402;48.082;11.628;2022-10-16T14:06:30;2.28;;;0.63;;
72408;SDS011;60402;48.082;11.628;2022-10-16T14:08:59;1.85;;;0.57;;
72408;SDS011;60402;48.082;11.628;2022-10-16T14:11:30;1.17;;;0.60;;
72408;SDS011;60402;48.082;11.628;2022-10-16T14:13:55;2.10;;;1.00;;
72408;SDS011;60402;48.082;11.628;2022-10-16T14:16:23;1.40;;;0.60;;
72408;SDS011;60402;48.082;11.628;2022-10-16T14:19:03;1.40;;;0.68;;
72408;SDS011;60402;48.082;11.628;2022-10-16T14:21:31;1.25;;;0.70;;
72408;SDS011;60402;48.082;11.628;2022-10-16T14:23:58;1.08;;;0.45;;
72408;SDS011;60402;48.082;11.628;2022-10-16T14:26:25;1.30;;;0.50;;
72408;SDS011;60402;48.082;11.628;2022-10-16T14:29:14;1.55;;;0.73;;
72408;SDS011;60402;48.082;11.628;2022-10-16T14:31:53;1.02;;;0.60;;
72408;SDS011;60402;48.082;11.628;2022-10-16T14:34:41;1.08;;;0.50;;
72408;SDS011;60402;48.082;11.628;2022-10-16T14:37:14;1.00;;;0.55;;
72408;SDS011;60402;48.082;11.628;2022-10-16T14:39:51;1.90;;;0.70;;
72408;SDS011;60402;48.082;11.628;2022-10-16T14:42:18;1.30;;;0.70;;
72408;SDS011;60402;48.082;11.628;2022-10-16T14:44:48;0.85;;;0.50;;
72408;SDS011;60402;48.082;11.628;2022-10-16T14:47:18;1.45;;;0.75;;
72408;SDS011;60402;48.082;11.628;2022-10-16T14:49:47;1.33;;;0.65;;
72408;SDS011;60402;48.082;11.628;2022-10-16T14:52:12;0.90;;;0.60;;
72408;SDS011;60402;48.082;11.628;2022-10-16T14:54:38;1.02;;;0.70;;
72408;SDS011;60402;48.082;11.628;2022-10-16T14:57:03;1.70;;;0.70;;
72408;SDS011;60402;48.082;11.628;2022-10-16T14:59:34;1.40;;;0.55;;
72408;SDS011;60402;48.082;11.628;2022-10-16T15:02:02;1.40;;;0.70;;
72408;SDS011;60402;48.082;11.628;2022-10-16T15:04:38;2.05;;;0.60;;
72408;SDS011;60402;48.082;11.628;2022-10-16T15:07:04;0.87;;;0.50;;
72408;SDS011;60402;48.082;11.628;2022-10-16T15:09:29;2.15;;;0.70;;
72408;SDS011;60402;48.082;11.628;2022-10-16T15:11:54;1.00;;;0.50;;
72408;SDS011;60402;48.082;11.628;2022-10-16T15:14:19;1.80;;;0.70;;
72408;SDS011;60402;48.082;11.628;2022-10-16T15:16:45;1.50;;;0.70;;
72408;SDS011;60402;48.082;11.628;2022-10-16T15:19:10;1.67;;;0.68;;
72408;SDS011;60402;48.082;11.628;2022-10-16T15:21:36;2.47;;;0.80;;
72408;SDS011;60402;48.082;11.628;2022-10-16T15:24:01;1.80;;;0.70;;
72408;SDS011;60402;48.082;11.628;2022-10-16T15:26:27;1.38;;;0.60;;
72408;SDS011;60402;48.082;11.628;2022-10-16T15:28:53;1.60;;;0.70;;
72408;SDS011;60402;48.082;11.628;2022-10-16T15:31:19;1.25;;;0.57;;
72408;SDS011;60402;48.082;11.628;2022-10-16T15:33:48;1.92;;;0.80;;
72408;SDS011;60402;48.082;11.628;2022-10-16T15:36:44;1.65;;;0.80;;
72408;SDS011;60402;48.082;11.628;2022-10-16T15:39:13;2.30;;;0.88;;
72408;SDS011;60402;48.082;11.628;2022-10-16T15:41:44;3.47;;;1.20;;
72408;SDS011;60402;48.082;11.628;2022-10-16T15:44:12;1.73;;;0.85;;
72408;SDS011;60402;48.082;11.628;2022-10-16T15:46:55;2.05;;;0.80;;
72408;SDS011;60402;48.082;11.628;2022-10-16T15:49:34;1.63;;;0.75;;
72408;SDS011;60402;48.082;11.628;2022-10-16T15:51:59;1.70;;;0.80;;
72408;SDS011;60402;48.082;11.628;2022-10-16T15:54:25;2.15;;;0.80;;
72408;SDS011;60402;48.082;11.628;2022-10-16T15:56:50;4.30;;;0.80;;
72408;SDS011;60402;48.082;11.628;2022-10-16T15:59:15;3.22;;;0.85;;
72408;SDS011;60402;48.082;11.628;2022-10-16T16:01:41;2.20;;;0.75;;
72408;SDS011;60402;48.082;11.628;2022-10-16T16:04:06;2.35;;;1.00;;
72408;SDS011;60402;48.082;11.628;2022-10-16T16:06:31;2.00;;;0.70;;
72408;SDS011;60402;48.082;11.628;2022-10-16T16:08:57;2.95;;;0.80;;
72408;SDS011;60402;48.082;11.628;2022-10-16T16:11:24;1.63;;;0.90;;
72408;SDS011;60402;48.082;11.628;2022-10-16T16:13:50;3.08;;;0.82;;
72408;SDS011;60402;48.082;11.628;2022-10-16T16:16:15;3.05;;;1.20;;
72408;SDS011;60402;48.082;11.628;2022-10-16T16:18:42;2.38;;;1.20;;
72408;SDS011;60402;48.082;11.628;2022-10-16T16:21:10;5.00;;;2.00;;
72408;SDS011;60402;48.082;11.628;2022-10-16T16:23:39;9.55;;;2.20;;
72408;SDS011;60402;48.082;11.628;2022-10-16T16:26:11;3.05;;;1.10;;
72408;SDS011;60402;48.082;11.628;2022-10-16T16:28:39;2.05;;;1.00;;
72408;SDS011;60402;48.082;11.628;2022-10-16T16:31:05;3.85;;;1.17;;
72408;SDS011;60402;48.082;11.628;2022-10-16T16:33:31;2.78;;;1.00;;
72408;SDS011;60402;48.082;11.628;2022-10-16T16:36:00;3.10;;;1.60;;
72408;SDS011;60402;48.082;11.628;2022-10-16T16:38:28;3.17;;;1.25;;
72408;SDS011;60402;48.082;11.628;2022-10-16T16:40:54;3.67;;;1.50;;